sensor_id;sensor_type;location;lat;lon;timestamp;P1;durP1;ratioP1;P2;durP2;ratioP2
65244;SDS011;51846;48.692;2.382;2022-08-04T00:08:46;7.97;;;1.80;;
65244;SDS011;51846;48.692;2.382;2022-08-04T00:11:14;7.93;;;2.28;;
65244;SDS011;51846;48.692;2.382;2022-08-04T00:13:47;6.03;;;2.00;;
65244;SDS011;51846;48.692;2.382;2022-08-04T00:16:17;4.72;;;1.65;;
65244;SDS011;51846;48.692;2.382;2022-08-04T00:19:06;4.80;;;1.92;;
65244;SDS011;51846;48.692;2.382;2022-08-04T00:21:35;8.70;;;2.22;;
65244;SDS011;51846;48.692;2.382;2022-08-04T00:24:03;7.10;;;2.35;;
65244;SDS011;51846;48.692;2.382;2022-08-04T00:26:30;5.18;;;2.00;;
65244;SDS011;51846;48.692;2.382;2022-08-04T00:28:57;8.30;;;2.22;;
65244;SDS011;51846;48.692;2.382;2022-08-04T00:31:22;11.98;;;2.08;;
65244;SDS011;51846;48.692;2.382;2022-08-04T00:33:48;5.65;;;1.90;;
65244;SDS011;51846;48.692;2.382;2022-08-04T00:36:15;5.53;;;1.50;;
65244;SDS011;51846;48.692;2.382;2022-08-04T00:38:42;8.77;;;2.15;;
65244;SDS011;51846;48.692;2.382;2022-08-04T00:49:20;7.75;;;1.77;;
65244;SDS011;51846;48.692;2.382;2022-08-04T00:52:40;8.45;;;2.25;;
65244;SDS011;51846;48.692;2.382;2022-08-04T00:55:18;6.47;;;1.80;;
65244;SDS011;51846;48.692;2.382;2022-08-04T00:57:52;7.00;;;1.73;;
65244;SDS011;51846;48.692;2.382;2022-08-04T01:00:27;5.68;;;1.98;;
65244;SDS011;51846;48.692;2.382;2022-08-04T01:12:07;6.63;;;1.80;;
65244;SDS011;51846;48.692;2.382;2022-08-04T01:15:03;6.45;;;1.95;;
65244;SDS011;51846;48.692;2.382;2022-08-04T01:20:26;4.85;;;1.70;;
65244;SDS011;51846;48.692;2.382;2022-08-04T01:33:59;11.27;;;2.15;;
65244;SDS011;51846;48.692;2.382;2022-08-04T01:36:33;7.45;;;1.70;;
65244;SDS011;51846;48.692;2.382;2022-08-04T01:38:59;6.10;;;1.88;;
65244;SDS011;51846;48.692;2.382;2022-08-04T01:41:45;10.35;;;1.98;;
65244;SDS011;51846;48.692;2.382;2022-08-04T01:44:11;5.80;;;1.85;;
65244;SDS011;51846;48.692;2.382;2022-08-04T01:46:38;8.00;;;1.75;;
65244;SDS011;51846;48.692;2.382;2022-08-04T01:49:04;5.30;;;1.58;;
65244;SDS011;51846;48.692;2.382;2022-08-04T01:51:31;5.82;;;1.73;;
65244;SDS011;51846;48.692;2.382;2022-08-04T01:54:00;8.55;;;1.92;;
65244;SDS011;51846;48.692;2.382;2022-08-04T01:56:26;7.03;;;1.60;;
65244;SDS011;51846;48.692;2.382;2022-08-04T01:58:56;5.07;;;1.75;;
65244;SDS011;51846;48.692;2.382;2022-08-04T02:01:22;5.25;;;1.70;;
65244;SDS011;51846;48.692;2.382;2022-08-04T02:03:47;5.97;;;1.60;;
65244;SDS011;51846;48.692;2.382;2022-08-04T02:06:36;8.15;;;1.67;;
65244;SDS011;51846;48.692;2.382;2022-08-04T02:09:26;7.28;;;1.80;;
65244;SDS011;51846;48.692;2.382;2022-08-04T02:12:12;5.50;;;1.60;;
65244;SDS011;51846;48.692;2.382;2022-08-04T02:14:56;5.90;;;1.67;;
65244;SDS011;51846;48.692;2.382;2022-08-04T02:22:26;7.25;;;1.95;;
65244;SDS011;51846;48.692;2.382;2022-08-04T02:25:26;8.48;;;1.70;;
65244;SDS011;51846;48.692;2.382;2022-08-04T02:30:33;5.05;;;1.73;;
65244;SDS011;51846;48.692;2.382;2022-08-04T02:33:29;7.10;;;1.77;;
65244;SDS011;51846;48.692;2.382;2022-08-04T02:36:00;5.88;;;1.80;;
65244;SDS011;51846;48.692;2.382;2022-08-04T02:38:52;4.10;;;1.70;;
65244;SDS011;51846;48.692;2.382;2022-08-04T02:41:25;7.75;;;2.00;;
65244;SDS011;51846;48.692;2.382;2022-08-04T02:43:54;5.18;;;2.00;;
65244;SDS011;51846;48.692;2.382;2022-08-04T02:46:21;4.68;;;1.80;;
65244;SDS011;51846;48.692;2.382;2022-08-04T02:48:49;6.03;;;1.70;;
65244;SDS011;51846;48.692;2.382;2022-08-04T02:51:16;5.07;;;1.90;;
65244;SDS011;51846;48.692;2.382;2022-08-04T02:53:46;4.90;;;1.80;;
65244;SDS011;51846;48.692;2.382;2022-08-04T02:56:18;5.10;;;1.80;;
65244;SDS011;51846;48.692;2.382;2022-08-04T02:58:45;3.85;;;1.70;;
65244;SDS011;51846;48.692;2.382;2022-08-04T03:01:16;4.72;;;1.75;;
65244;SDS011;51846;48.692;2.382;2022-08-04T03:03:50;5.28;;;1.92;;
65244;SDS011;51846;48.692;2.382;2022-08-04T03:06:40;5.90;;;2.00;;
65244;SDS011;51846;48.692;2.382;2022-08-04T03:37:00;7.15;;;1.80;;
65244;SDS011;51846;48.692;2.382;2022-08-04T03:39:30;5.50;;;2.03;;
65244;SDS011;51846;48.692;2.382;2022-08-04T04:08:32;4.80;;;2.10;;
65244;SDS011;51846;48.692;2.382;2022-08-04T04:14:10;7.15;;;1.90;;
65244;SDS011;51846;48.692;2.382;2022-08-04T04:16:57;6.35;;;2.22;;
65244;SDS011;51846;48.692;2.382;2022-08-04T04:22:49;5.53;;;2.00;;
65244;SDS011;51846;48.692;2.382;2022-08-04T04:25:33;6.30;;;2.30;;
65244;SDS011;51846;48.692;2.382;2022-08-04T04:28:17;7.85;;;2.45;;
65244;SDS011;51846;48.692;2.382;2022-08-04T04:36:32;6.78;;;1.90;;
65244;SDS011;51846;48.692;2.382;2022-08-04T04:39:02;6.32;;;2.00;;
65244;SDS011;51846;48.692;2.382;2022-08-04T04:44:10;9.77;;;2.30;;
65244;SDS011;51846;48.692;2.382;2022-08-04T04:46:49;6.45;;;2.05;;
65244;SDS011;51846;48.692;2.382;2022-08-04T04:49:32;6.20;;;2.20;;
65244;SDS011;51846;48.692;2.382;2022-08-04T04:52:05;8.65;;;2.10;;
65244;SDS011;51846;48.692;2.382;2022-08-04T04:54:43;6.32;;;2.20;;
65244;SDS011;51846;48.692;2.382;2022-08-04T04:57:16;6.30;;;2.03;;
65244;SDS011;51846;48.692;2.382;2022-08-04T04:59:48;10.32;;;2.25;;
65244;SDS011;51846;48.692;2.382;2022-08-04T05:13:37;8.70;;;2.30;;
65244;SDS011;51846;48.692;2.382;2022-08-04T05:16:09;9.57;;;2.33;;
65244;SDS011;51846;48.692;2.382;2022-08-04T05:19:33;3.38;;;1.98;;
65244;SDS011;51846;48.692;2.382;2022-08-04T05:21:44;8.98;;;2.42;;
65244;SDS011;51846;48.692;2.382;2022-08-04T05:24:46;5.38;;;2.00;;
65244;SDS011;51846;48.692;2.382;2022-08-04T05:27:18;6.50;;;2.22;;
65244;SDS011;51846;48.692;2.382;2022-08-04T05:29:53;6.70;;;2.03;;
65244;SDS011;51846;48.692;2.382;2022-08-04T05:32:25;10.88;;;2.38;;
65244;SDS011;51846;48.692;2.382;2022-08-04T05:34:56;5.93;;;1.75;;
65244;SDS011;51846;48.692;2.382;2022-08-04T05:37:26;7.75;;;2.25;;
65244;SDS011;51846;48.692;2.382;2022-08-04T05:40:02;5.38;;;2.00;;
65244;SDS011;51846;48.692;2.382;2022-08-04T05:42:30;6.70;;;2.05;;
65244;SDS011;51846;48.692;2.382;2022-08-04T05:44:59;7.82;;;2.20;;
65244;SDS011;51846;48.692;2.382;2022-08-04T05:47:26;6.57;;;2.22;;
65244;SDS011;51846;48.692;2.382;2022-08-04T05:49:53;9.02;;;2.30;;
65244;SDS011;51846;48.692;2.382;2022-08-04T05:52:20;5.20;;;2.13;;
65244;SDS011;51846;48.692;2.382;2022-08-04T05:54:46;6.18;;;2.13;;
65244;SDS011;51846;48.692;2.382;2022-08-04T05:57:13;7.82;;;2.10;;
65244;SDS011;51846;48.692;2.382;2022-08-04T05:59:39;6.18;;;2.15;;
65244;SDS011;51846;48.692;2.382;2022-08-04T06:02:10;6.63;;;2.20;;
65244;SDS011;51846;48.692;2.382;2022-08-04T06:04:38;5.43;;;1.98;;
65244;SDS011;51846;48.692;2.382;2022-08-04T06:07:05;8.43;;;2.22;;
65244;SDS011;51846;48.692;2.382;2022-08-04T06:09:32;8.60;;;2.33;;
65244;SDS011;51846;48.692;2.382;2022-08-04T06:11:59;7.30;;;2.40;;
65244;SDS011;51846;48.692;2.382;2022-08-04T06:14:26;7.78;;;2.28;;
65244;SDS011;51846;48.692;2.382;2022-08-04T06:16:59;7.35;;;2.15;;
65244;SDS011;51846;48.692;2.382;2022-08-04T06:19:29;8.93;;;2.60;;
65244;SDS011;51846;48.692;2.382;2022-08-04T06:21:55;10.90;;;2.38;;
65244;SDS011;51846;48.692;2.382;2022-08-04T06:24:25;11.30;;;2.30;;
65244;SDS011;51846;48.692;2.382;2022-08-04T06:26:53;7.03;;;2.30;;
65244;SDS011;51846;48.692;2.382;2022-08-04T06:29:20;8.35;;;2.45;;
65244;SDS011;51846;48.692;2.382;2022-08-04T06:31:50;9.80;;;2.35;;
65244;SDS011;51846;48.692;2.382;2022-08-04T06:34:26;8.07;;;2.25;;
65244;SDS011;51846;48.692;2.382;2022-08-04T06:36:54;8.00;;;2.30;;
65244;SDS011;51846;48.692;2.382;2022-08-04T06:39:20;6.72;;;2.03;;
65244;SDS011;51846;48.692;2.382;2022-08-04T06:41:48;9.30;;;2.50;;
65244;SDS011;51846;48.692;2.382;2022-08-04T06:44:15;9.43;;;2.38;;
65244;SDS011;51846;48.692;2.382;2022-08-04T06:46:42;8.07;;;2.22;;
65244;SDS011;51846;48.692;2.382;2022-08-04T06:49:08;8.85;;;2.28;;
65244;SDS011;51846;48.692;2.382;2022-08-04T06:51:35;10.38;;;2.20;;
65244;SDS011;51846;48.692;2.382;2022-08-04T06:54:05;10.85;;;2.30;;
65244;SDS011;51846;48.692;2.382;2022-08-04T06:56:31;10.45;;;2.67;;
65244;SDS011;51846;48.692;2.382;2022-08-04T06:58:58;9.90;;;2.30;;
65244;SDS011;51846;48.692;2.382;2022-08-04T07:01:26;10.80;;;2.55;;
65244;SDS011;51846;48.692;2.382;2022-08-04T07:03:55;8.05;;;2.03;;
65244;SDS011;51846;48.692;2.382;2022-08-04T07:06:21;8.13;;;2.25;;
65244;SDS011;51846;48.692;2.382;2022-08-04T07:08:48;11.35;;;2.70;;
65244;SDS011;51846;48.692;2.382;2022-08-04T07:11:14;10.38;;;2.40;;
65244;SDS011;51846;48.692;2.382;2022-08-04T07:13:41;8.63;;;2.55;;
65244;SDS011;51846;48.692;2.382;2022-08-04T07:16:12;13.45;;;2.90;;
65244;SDS011;51846;48.692;2.382;2022-08-04T07:18:39;7.05;;;2.10;;
65244;SDS011;51846;48.692;2.382;2022-08-04T07:21:04;11.48;;;2.72;;
65244;SDS011;51846;48.692;2.382;2022-08-04T07:23:30;9.30;;;2.45;;
65244;SDS011;51846;48.692;2.382;2022-08-04T07:26:09;11.48;;;2.50;;
65244;SDS011;51846;48.692;2.382;2022-08-04T07:28:35;12.52;;;2.88;;
65244;SDS011;51846;48.692;2.382;2022-08-04T07:31:00;11.55;;;2.42;;
65244;SDS011;51846;48.692;2.382;2022-08-04T07:33:26;9.75;;;2.40;;
65244;SDS011;51846;48.692;2.382;2022-08-04T07:35:53;8.52;;;2.40;;
65244;SDS011;51846;48.692;2.382;2022-08-04T07:38:20;10.82;;;2.55;;
65244;SDS011;51846;48.692;2.382;2022-08-04T07:40:52;6.75;;;2.47;;
65244;SDS011;51846;48.692;2.382;2022-08-04T07:43:18;10.98;;;3.53;;
65244;SDS011;51846;48.692;2.382;2022-08-04T07:45:44;11.23;;;2.60;;
65244;SDS011;51846;48.692;2.382;2022-08-04T07:48:11;14.80;;;2.70;;
65244;SDS011;51846;48.692;2.382;2022-08-04T07:50:39;17.30;;;2.50;;
65244;SDS011;51846;48.692;2.382;2022-08-04T07:53:09;10.25;;;2.80;;
65244;SDS011;51846;48.692;2.382;2022-08-04T07:55:39;10.65;;;2.60;;
65244;SDS011;51846;48.692;2.382;2022-08-04T07:58:08;12.90;;;2.30;;
65244;SDS011;51846;48.692;2.382;2022-08-04T08:00:33;11.65;;;2.78;;
65244;SDS011;51846;48.692;2.382;2022-08-04T08:02:58;12.98;;;2.35;;
65244;SDS011;51846;48.692;2.382;2022-08-04T08:05:25;9.27;;;2.40;;
65244;SDS011;51846;48.692;2.382;2022-08-04T08:07:50;8.45;;;2.38;;
65244;SDS011;51846;48.692;2.382;2022-08-04T08:10:16;10.85;;;2.53;;
65244;SDS011;51846;48.692;2.382;2022-08-04T08:12:42;12.18;;;2.55;;
65244;SDS011;51846;48.692;2.382;2022-08-04T08:15:10;13.75;;;2.35;;
65244;SDS011;51846;48.692;2.382;2022-08-04T08:17:38;12.10;;;2.88;;
65244;SDS011;51846;48.692;2.382;2022-08-04T08:20:07;12.70;;;2.63;;
65244;SDS011;51846;48.692;2.382;2022-08-04T08:22:34;8.85;;;2.30;;
65244;SDS011;51846;48.692;2.382;2022-08-04T08:25:01;9.00;;;2.50;;
65244;SDS011;51846;48.692;2.382;2022-08-04T08:27:26;10.55;;;2.50;;
65244;SDS011;51846;48.692;2.382;2022-08-04T08:29:52;7.55;;;2.63;;
65244;SDS011;51846;48.692;2.382;2022-08-04T08:32:18;11.27;;;2.67;;
65244;SDS011;51846;48.692;2.382;2022-08-04T08:34:44;12.55;;;3.15;;
65244;SDS011;51846;48.692;2.382;2022-08-04T08:39:58;10.05;;;2.78;;
65244;SDS011;51846;48.692;2.382;2022-08-04T08:51:19;19.42;;;2.90;;
65244;SDS011;51846;48.692;2.382;2022-08-04T08:54:05;14.93;;;3.50;;
65244;SDS011;51846;48.692;2.382;2022-08-04T09:05:01;11.68;;;3.20;;
65244;SDS011;51846;48.692;2.382;2022-08-04T09:10:08;12.35;;;3.10;;
65244;SDS011;51846;48.692;2.382;2022-08-04T09:12:50;12.25;;;3.30;;
65244;SDS011;51846;48.692;2.382;2022-08-04T09:15:29;18.23;;;3.13;;
65244;SDS011;51846;48.692;2.382;2022-08-04T09:18:08;8.20;;;2.45;;
65244;SDS011;51846;48.692;2.382;2022-08-04T09:20:47;8.05;;;2.67;;
65244;SDS011;51846;48.692;2.382;2022-08-04T09:29:10;11.63;;;2.70;;
65244;SDS011;51846;48.692;2.382;2022-08-04T09:34:26;11.98;;;2.60;;
65244;SDS011;51846;48.692;2.382;2022-08-04T09:37:08;10.35;;;3.08;;
65244;SDS011;51846;48.692;2.382;2022-08-04T09:39:53;6.53;;;2.50;;
65244;SDS011;51846;48.692;2.382;2022-08-04T09:42:47;14.32;;;3.33;;
65244;SDS011;51846;48.692;2.382;2022-08-04T09:48:41;8.82;;;2.63;;
65244;SDS011;51846;48.692;2.382;2022-08-04T09:51:15;9.68;;;2.50;;
65244;SDS011;51846;48.692;2.382;2022-08-04T09:54:00;9.13;;;2.35;;
65244;SDS011;51846;48.692;2.382;2022-08-04T09:59:57;12.35;;;2.55;;
65244;SDS011;51846;48.692;2.382;2022-08-04T10:02:25;12.83;;;2.60;;
65244;SDS011;51846;48.692;2.382;2022-08-04T10:04:54;9.85;;;2.63;;
65244;SDS011;51846;48.692;2.382;2022-08-04T10:10:18;9.70;;;2.35;;
65244;SDS011;51846;48.692;2.382;2022-08-04T10:13:04;7.20;;;2.30;;
65244;SDS011;51846;48.692;2.382;2022-08-04T10:15:50;11.27;;;2.30;;
65244;SDS011;51846;48.692;2.382;2022-08-04T10:24:35;9.13;;;2.30;;
65244;SDS011;51846;48.692;2.382;2022-08-04T10:29:43;6.85;;;1.90;;
65244;SDS011;51846;48.692;2.382;2022-08-04T10:40:41;6.60;;;2.08;;
65244;SDS011;51846;48.692;2.382;2022-08-04T10:43:12;7.47;;;1.90;;
65244;SDS011;51846;48.692;2.382;2022-08-04T10:54:25;5.88;;;2.05;;
65244;SDS011;51846;48.692;2.382;2022-08-04T10:56:57;5.22;;;1.80;;
65244;SDS011;51846;48.692;2.382;2022-08-04T11:02:36;8.57;;;1.90;;
65244;SDS011;51846;48.692;2.382;2022-08-04T11:05:18;5.72;;;2.00;;
65244;SDS011;51846;48.692;2.382;2022-08-04T11:07:51;7.22;;;1.90;;
65244;SDS011;51846;48.692;2.382;2022-08-04T11:10:21;6.53;;;1.77;;
65244;SDS011;51846;48.692;2.382;2022-08-04T11:12:54;5.50;;;1.80;;
65244;SDS011;51846;48.692;2.382;2022-08-04T11:15:24;4.80;;;1.75;;
65244;SDS011;51846;48.692;2.382;2022-08-04T11:17:59;4.30;;;1.80;;
65244;SDS011;51846;48.692;2.382;2022-08-04T11:20:37;5.28;;;1.48;;
65244;SDS011;51846;48.692;2.382;2022-08-04T11:23:09;4.78;;;1.73;;
65244;SDS011;51846;48.692;2.382;2022-08-04T11:33:22;5.03;;;2.15;;
65244;SDS011;51846;48.692;2.382;2022-08-04T11:36:05;5.83;;;1.70;;
65244;SDS011;51846;48.692;2.382;2022-08-04T11:45:03;9.90;;;2.00;;
65244;SDS011;51846;48.692;2.382;2022-08-04T11:47:18;7.10;;;1.70;;
65244;SDS011;51846;48.692;2.382;2022-08-04T11:49:45;7.57;;;1.73;;
65244;SDS011;51846;48.692;2.382;2022-08-04T11:52:15;6.70;;;1.73;;
65244;SDS011;51846;48.692;2.382;2022-08-04T11:54:43;5.85;;;1.75;;
65244;SDS011;51846;48.692;2.382;2022-08-04T11:57:10;7.47;;;1.90;;
65244;SDS011;51846;48.692;2.382;2022-08-04T11:59:36;5.70;;;1.70;;
65244;SDS011;51846;48.692;2.382;2022-08-04T12:02:21;5.47;;;1.60;;
65244;SDS011;51846;48.692;2.382;2022-08-04T12:05:06;4.18;;;1.77;;
65244;SDS011;51846;48.692;2.382;2022-08-04T12:10:14;4.00;;;1.65;;
65244;SDS011;51846;48.692;2.382;2022-08-04T12:18:26;4.90;;;1.65;;
65244;SDS011;51846;48.692;2.382;2022-08-04T12:21:04;6.57;;;1.70;;
65244;SDS011;51846;48.692;2.382;2022-08-04T12:23:34;6.47;;;1.90;;
65244;SDS011;51846;48.692;2.382;2022-08-04T12:26:06;4.30;;;1.45;;
65244;SDS011;51846;48.692;2.382;2022-08-04T12:28:38;5.40;;;1.65;;
65244;SDS011;51846;48.692;2.382;2022-08-04T12:36:19;9.52;;;1.80;;
65244;SDS011;51846;48.692;2.382;2022-08-04T12:39:14;14.10;;;1.70;;
65244;SDS011;51846;48.692;2.382;2022-08-04T12:41:41;4.35;;;1.70;;
65244;SDS011;51846;48.692;2.382;2022-08-04T12:44:15;6.78;;;1.60;;
65244;SDS011;51846;48.692;2.382;2022-08-04T12:46:43;7.63;;;2.00;;
65244;SDS011;51846;48.692;2.382;2022-08-04T12:49:10;5.97;;;1.60;;
65244;SDS011;51846;48.692;2.382;2022-08-04T12:51:37;5.93;;;1.70;;
65244;SDS011;51846;48.692;2.382;2022-08-04T12:54:06;8.73;;;1.73;;
65244;SDS011;51846;48.692;2.382;2022-08-04T12:56:34;9.23;;;1.80;;
65244;SDS011;51846;48.692;2.382;2022-08-04T12:59:02;5.13;;;1.67;;
65244;SDS011;51846;48.692;2.382;2022-08-04T13:01:30;5.75;;;1.60;;
65244;SDS011;51846;48.692;2.382;2022-08-04T13:06:25;5.18;;;1.60;;
65244;SDS011;51846;48.692;2.382;2022-08-04T13:09:01;4.47;;;1.50;;
65244;SDS011;51846;48.692;2.382;2022-08-04T13:11:40;4.28;;;1.50;;
65244;SDS011;51846;48.692;2.382;2022-08-04T13:14:11;5.50;;;1.70;;
65244;SDS011;51846;48.692;2.382;2022-08-04T13:16:38;3.35;;;1.80;;
65244;SDS011;51846;48.692;2.382;2022-08-04T13:19:05;3.42;;;1.63;;
65244;SDS011;51846;48.692;2.382;2022-08-04T13:21:32;5.70;;;1.60;;
65244;SDS011;51846;48.692;2.382;2022-08-04T13:24:02;5.35;;;1.60;;
65244;SDS011;51846;48.692;2.382;2022-08-04T13:26:30;5.90;;;1.70;;
65244;SDS011;51846;48.692;2.382;2022-08-04T13:28:58;5.45;;;1.75;;
65244;SDS011;51846;48.692;2.382;2022-08-04T13:31:33;4.50;;;1.55;;
65244;SDS011;51846;48.692;2.382;2022-08-04T13:34:02;4.65;;;1.50;;
65244;SDS011;51846;48.692;2.382;2022-08-04T13:36:31;3.70;;;1.42;;
65244;SDS011;51846;48.692;2.382;2022-08-04T13:39:03;7.93;;;1.70;;
65244;SDS011;51846;48.692;2.382;2022-08-04T13:41:32;5.90;;;1.85;;
65244;SDS011;51846;48.692;2.382;2022-08-04T13:44:00;3.30;;;1.50;;
65244;SDS011;51846;48.692;2.382;2022-08-04T13:46:28;3.20;;;1.70;;
65244;SDS011;51846;48.692;2.382;2022-08-04T13:48:56;4.75;;;1.60;;
65244;SDS011;51846;48.692;2.382;2022-08-04T13:51:24;3.25;;;1.55;;
65244;SDS011;51846;48.692;2.382;2022-08-04T13:53:58;5.03;;;1.60;;
65244;SDS011;51846;48.692;2.382;2022-08-04T13:56:41;4.40;;;1.77;;
65244;SDS011;51846;48.692;2.382;2022-08-04T13:59:19;3.65;;;1.60;;
65244;SDS011;51846;48.692;2.382;2022-08-04T14:01:55;7.60;;;1.70;;
65244;SDS011;51846;48.692;2.382;2022-08-04T14:04:24;6.00;;;1.70;;
65244;SDS011;51846;48.692;2.382;2022-08-04T14:06:58;6.60;;;1.70;;
65244;SDS011;51846;48.692;2.382;2022-08-04T14:09:28;4.57;;;1.70;;
65244;SDS011;51846;48.692;2.382;2022-08-04T14:12:03;4.00;;;1.77;;
65244;SDS011;51846;48.692;2.382;2022-08-04T14:14:32;3.05;;;1.50;;
65244;SDS011;51846;48.692;2.382;2022-08-04T14:17:01;4.47;;;1.50;;
65244;SDS011;51846;48.692;2.382;2022-08-04T14:19:46;4.10;;;1.60;;
65244;SDS011;51846;48.692;2.382;2022-08-04T14:27:25;5.93;;;1.77;;
65244;SDS011;51846;48.692;2.382;2022-08-04T14:29:53;4.85;;;1.60;;
65244;SDS011;51846;48.692;2.382;2022-08-04T14:32:18;4.75;;;1.80;;
65244;SDS011;51846;48.692;2.382;2022-08-04T14:34:44;5.00;;;1.70;;
65244;SDS011;51846;48.692;2.382;2022-08-04T14:37:10;6.97;;;1.52;;
65244;SDS011;51846;48.692;2.382;2022-08-04T14:39:39;4.25;;;1.67;;
65244;SDS011;51846;48.692;2.382;2022-08-04T14:42:07;15.10;;;1.85;;
65244;SDS011;51846;48.692;2.382;2022-08-04T14:48:02;5.30;;;1.80;;
65244;SDS011;51846;48.692;2.382;2022-08-04T14:50:36;2.95;;;1.70;;
65244;SDS011;51846;48.692;2.382;2022-08-04T14:53:02;6.25;;;1.60;;
65244;SDS011;51846;48.692;2.382;2022-08-04T14:55:29;3.45;;;1.60;;
65244;SDS011;51846;48.692;2.382;2022-08-04T14:57:55;5.82;;;1.70;;
65244;SDS011;51846;48.692;2.382;2022-08-04T15:00:32;4.43;;;1.90;;
65244;SDS011;51846;48.692;2.382;2022-08-04T15:03:00;4.72;;;1.80;;
65244;SDS011;51846;48.692;2.382;2022-08-04T15:05:32;6.07;;;1.70;;
65244;SDS011;51846;48.692;2.382;2022-08-04T15:07:58;3.45;;;1.63;;
65244;SDS011;51846;48.692;2.382;2022-08-04T15:10:24;3.38;;;1.70;;
65244;SDS011;51846;48.692;2.382;2022-08-04T15:12:50;4.00;;;1.55;;
65244;SDS011;51846;48.692;2.382;2022-08-04T15:15:16;4.43;;;1.73;;
65244;SDS011;51846;48.692;2.382;2022-08-04T15:17:42;7.18;;;1.92;;
65244;SDS011;51846;48.692;2.382;2022-08-04T15:20:14;6.03;;;1.65;;
65244;SDS011;51846;48.692;2.382;2022-08-04T15:22:41;5.15;;;1.80;;
65244;SDS011;51846;48.692;2.382;2022-08-04T15:25:07;5.45;;;1.63;;
65244;SDS011;51846;48.692;2.382;2022-08-04T15:27:33;8.45;;;1.80;;
65244;SDS011;51846;48.692;2.382;2022-08-04T15:30:03;5.05;;;1.70;;
65244;SDS011;51846;48.692;2.382;2022-08-04T15:32:32;3.10;;;1.67;;
65244;SDS011;51846;48.692;2.382;2022-08-04T15:35:03;6.47;;;1.80;;
65244;SDS011;51846;48.692;2.382;2022-08-04T15:37:36;17.52;;;2.20;;
65244;SDS011;51846;48.692;2.382;2022-08-04T15:40:13;4.07;;;1.63;;
65244;SDS011;51846;48.692;2.382;2022-08-04T15:42:46;3.35;;;1.80;;
65244;SDS011;51846;48.692;2.382;2022-08-04T15:45:24;6.20;;;1.83;;
65244;SDS011;51846;48.692;2.382;2022-08-04T15:48:35;5.53;;;1.85;;
65244;SDS011;51846;48.692;2.382;2022-08-04T15:53:27;4.32;;;2.10;;
65244;SDS011;51846;48.692;2.382;2022-08-04T15:55:53;4.70;;;2.10;;
65244;SDS011;51846;48.692;2.382;2022-08-04T15:58:19;5.53;;;2.00;;
65244;SDS011;51846;48.692;2.382;2022-08-04T16:06:39;9.23;;;2.55;;
65244;SDS011;51846;48.692;2.382;2022-08-04T16:19:04;7.57;;;2.50;;
65244;SDS011;51846;48.692;2.382;2022-08-04T16:21:43;10.38;;;2.47;;
65244;SDS011;51846;48.692;2.382;2022-08-04T16:24:28;8.57;;;2.85;;
65244;SDS011;51846;48.692;2.382;2022-08-04T16:26:56;6.50;;;2.58;;
65244;SDS011;51846;48.692;2.382;2022-08-04T16:37:12;4.82;;;2.60;;
65244;SDS011;51846;48.692;2.382;2022-08-04T16:39:39;10.10;;;2.90;;
65244;SDS011;51846;48.692;2.382;2022-08-04T16:48:20;9.15;;;3.22;;
65244;SDS011;51846;48.692;2.382;2022-08-04T16:50:31;4.22;;;3.13;;
65244;SDS011;51846;48.692;2.382;2022-08-04T16:52:57;5.68;;;3.10;;
65244;SDS011;51846;48.692;2.382;2022-08-04T16:55:24;4.78;;;2.45;;
65244;SDS011;51846;48.692;2.382;2022-08-04T16:57:54;7.38;;;3.40;;
65244;SDS011;51846;48.692;2.382;2022-08-04T17:00:34;12.15;;;3.20;;
65244;SDS011;51846;48.692;2.382;2022-08-04T17:03:04;4.05;;;2.53;;
65244;SDS011;51846;48.692;2.382;2022-08-04T17:05:31;5.43;;;2.70;;
65244;SDS011;51846;48.692;2.382;2022-08-04T17:07:57;9.15;;;2.90;;
65244;SDS011;51846;48.692;2.382;2022-08-04T17:12:58;6.80;;;2.72;;
65244;SDS011;51846;48.692;2.382;2022-08-04T17:15:25;8.15;;;3.08;;
65244;SDS011;51846;48.692;2.382;2022-08-04T17:17:50;7.60;;;3.40;;
65244;SDS011;51846;48.692;2.382;2022-08-04T17:20:16;6.22;;;2.70;;
65244;SDS011;51846;48.692;2.382;2022-08-04T17:22:51;6.25;;;2.67;;
65244;SDS011;51846;48.692;2.382;2022-08-04T17:25:16;7.72;;;2.92;;
65244;SDS011;51846;48.692;2.382;2022-08-04T17:27:42;9.32;;;3.15;;
65244;SDS011;51846;48.692;2.382;2022-08-04T17:30:24;8.05;;;3.38;;
65244;SDS011;51846;48.692;2.382;2022-08-04T17:32:50;6.20;;;3.70;;
65244;SDS011;51846;48.692;2.382;2022-08-04T17:35:15;9.70;;;4.35;;
65244;SDS011;51846;48.692;2.382;2022-08-04T17:37:41;6.30;;;3.50;;
65244;SDS011;51846;48.692;2.382;2022-08-04T17:40:11;8.95;;;3.70;;
65244;SDS011;51846;48.692;2.382;2022-08-04T17:42:40;10.60;;;3.78;;
65244;SDS011;51846;48.692;2.382;2022-08-04T17:45:10;7.40;;;3.72;;
65244;SDS011;51846;48.692;2.382;2022-08-04T17:47:49;7.03;;;3.55;;
65244;SDS011;51846;48.692;2.382;2022-08-04T17:50:23;8.95;;;3.65;;
65244;SDS011;51846;48.692;2.382;2022-08-04T17:55:55;7.82;;;3.00;;
65244;SDS011;51846;48.692;2.382;2022-08-04T17:58:21;8.05;;;3.60;;
65244;SDS011;51846;48.692;2.382;2022-08-04T18:01:01;7.78;;;3.20;;
65244;SDS011;51846;48.692;2.382;2022-08-04T18:03:27;9.52;;;3.40;;
65244;SDS011;51846;48.692;2.382;2022-08-04T18:05:52;9.07;;;3.67;;
65244;SDS011;51846;48.692;2.382;2022-08-04T18:08:24;8.82;;;3.60;;
65244;SDS011;51846;48.692;2.382;2022-08-04T18:10:51;6.97;;;3.60;;
65244;SDS011;51846;48.692;2.382;2022-08-04T18:13:18;10.30;;;4.05;;
65244;SDS011;51846;48.692;2.382;2022-08-04T18:15:44;12.35;;;4.82;;
65244;SDS011;51846;48.692;2.382;2022-08-04T18:20:42;12.40;;;6.70;;
65244;SDS011;51846;48.692;2.382;2022-08-04T18:23:11;13.88;;;6.53;;
65244;SDS011;51846;48.692;2.382;2022-08-04T18:25:37;12.50;;;6.47;;
65244;SDS011;51846;48.692;2.382;2022-08-04T18:28:05;14.85;;;6.45;;
65244;SDS011;51846;48.692;2.382;2022-08-04T18:30:33;12.38;;;6.57;;
65244;SDS011;51846;48.692;2.382;2022-08-04T18:33:00;12.15;;;6.10;;
65244;SDS011;51846;48.692;2.382;2022-08-04T18:35:26;13.75;;;6.60;;
65244;SDS011;51846;48.692;2.382;2022-08-04T18:37:52;14.45;;;6.57;;
65244;SDS011;51846;48.692;2.382;2022-08-04T18:40:18;10.95;;;6.30;;
65244;SDS011;51846;48.692;2.382;2022-08-04T18:42:45;17.73;;;6.60;;
65244;SDS011;51846;48.692;2.382;2022-08-04T18:45:10;10.77;;;6.45;;
65244;SDS011;51846;48.692;2.382;2022-08-04T18:47:37;13.20;;;5.97;;
65244;SDS011;51846;48.692;2.382;2022-08-04T18:50:03;9.70;;;5.40;;
65244;SDS011;51846;48.692;2.382;2022-08-04T18:52:29;10.27;;;4.60;;
65244;SDS011;51846;48.692;2.382;2022-08-04T18:54:55;8.38;;;3.80;;
65244;SDS011;51846;48.692;2.382;2022-08-04T18:57:20;9.85;;;3.50;;
65244;SDS011;51846;48.692;2.382;2022-08-04T18:59:47;5.40;;;3.00;;
65244;SDS011;51846;48.692;2.382;2022-08-04T19:02:13;7.70;;;3.25;;
65244;SDS011;51846;48.692;2.382;2022-08-04T19:04:39;8.15;;;3.30;;
65244;SDS011;51846;48.692;2.382;2022-08-04T19:07:06;8.13;;;2.97;;
65244;SDS011;51846;48.692;2.382;2022-08-04T19:09:32;10.40;;;3.20;;
65244;SDS011;51846;48.692;2.382;2022-08-04T19:11:58;5.80;;;2.90;;
65244;SDS011;51846;48.692;2.382;2022-08-04T19:14:23;12.23;;;3.25;;
65244;SDS011;51846;48.692;2.382;2022-08-04T19:16:49;8.07;;;3.20;;
65244;SDS011;51846;48.692;2.382;2022-08-04T19:19:14;8.15;;;4.13;;
65244;SDS011;51846;48.692;2.382;2022-08-04T19:21:41;6.07;;;3.30;;
65244;SDS011;51846;48.692;2.382;2022-08-04T19:24:07;10.70;;;4.03;;
65244;SDS011;51846;48.692;2.382;2022-08-04T19:26:33;6.75;;;3.25;;
65244;SDS011;51846;48.692;2.382;2022-08-04T19:29:00;8.23;;;3.70;;
65244;SDS011;51846;48.692;2.382;2022-08-04T19:31:26;10.88;;;4.00;;
65244;SDS011;51846;48.692;2.382;2022-08-04T19:33:51;8.73;;;4.07;;
65244;SDS011;51846;48.692;2.382;2022-08-04T19:36:16;11.02;;;4.10;;
65244;SDS011;51846;48.692;2.382;2022-08-04T19:38:42;5.60;;;3.10;;
65244;SDS011;51846;48.692;2.382;2022-08-04T19:41:08;10.27;;;2.80;;
65244;SDS011;51846;48.692;2.382;2022-08-04T19:43:34;6.53;;;2.92;;